createdAt,value
2022-08-09T00:00:12.260Z,17.41
2022-08-09T00:01:54.482Z,17.36
2022-08-09T00:04:00.462Z,17.45
2022-08-09T00:04:35.380Z,17.05
2022-08-09T00:06:19.549Z,16.80
2022-08-09T00:07:11.946Z,17.03
2022-08-09T00:08:31.504Z,17.36
2022-08-09T00:09:41.534Z,17.10
2022-08-09T00:10:53.077Z,16.78
2022-08-09T00:12:03.362Z,16.85
2022-08-09T00:13:17.437Z,17.01
2022-08-09T00:14:31.164Z,17.15
2022-08-09T00:15:58.966Z,17.32
2022-08-09T00:17:15.159Z,17.24
2022-08-09T00:18:40.237Z,17.43
2022-08-09T00:19:50.899Z,17.57
2022-08-09T00:20:59.301Z,17.44
2022-08-09T00:22:07.619Z,17.23
2022-08-09T00:23:55.287Z,17.35
2022-08-09T00:24:50.309Z,17.48
2022-08-09T00:25:57.883Z,17.36
2022-08-09T00:27:05.905Z,16.90
2022-08-09T00:28:13.979Z,17.34
2022-08-09T00:29:39.146Z,17.25
2022-08-09T00:30:55.403Z,17.64
2022-08-09T00:32:03.038Z,17.87
2022-08-09T00:33:11.418Z,17.98
2022-08-09T00:34:20.252Z,18.00
2022-08-09T00:35:29.633Z,18.04
2022-08-09T00:36:52.543Z,18.12
2022-08-09T00:38:00.623Z,18.18
2022-08-09T00:40:09.262Z,18.29
2022-08-09T00:40:53.115Z,18.61
2022-08-09T00:44:10.023Z,18.95
2022-08-09T00:44:10.260Z,19.00
2022-08-09T00:45:03.594Z,19.11
2022-08-09T00:46:28.533Z,19.01
2022-08-09T00:47:42.050Z,19.17
2022-08-09T00:48:54.477Z,19.11
2022-08-09T00:50:04.561Z,19.05
2022-08-09T00:51:13.110Z,18.99
2022-08-09T00:52:21.508Z,19.18
2022-08-09T00:53:37.589Z,19.17
2022-08-09T00:54:46.423Z,19.54
2022-08-09T00:56:04.121Z,19.74
2022-08-09T00:57:13.644Z,19.72
2022-08-09T00:58:27.669Z,20.01
2022-08-09T00:59:40.905Z,20.22
2022-08-09T01:00:51.615Z,20.30
2022-08-09T01:01:59.806Z,20.52
2022-08-09T01:03:30.947Z,20.78
2022-08-09T01:05:03.653Z,20.90
2022-08-09T01:06:35.404Z,21.06
2022-08-09T01:08:13.820Z,21.28
2022-08-09T01:10:00.297Z,21.17
2022-08-09T01:11:23.439Z,21.27
2022-08-09T01:12:41.178Z,21.51
2022-08-09T01:14:18.900Z,21.57
2022-08-09T01:15:27.320Z,21.66
2022-08-09T01:16:39.018Z,21.65
2022-08-09T01:17:59.242Z,21.68
2022-08-09T01:19:42.458Z,21.60
2022-08-09T01:21:01.810Z,21.62
2022-08-09T01:22:19.918Z,21.61
2022-08-09T01:24:05.279Z,21.71
2022-08-09T01:25:20.081Z,21.87
2022-08-09T01:26:53.021Z,22.01
2022-08-09T01:28:00.994Z,22.37
2022-08-09T01:29:08.300Z,22.44
2022-08-09T01:30:33.739Z,22.33
2022-08-09T01:32:31.067Z,22.22
2022-08-09T01:33:13.359Z,22.38
2022-08-09T01:34:21.536Z,22.41
2022-08-09T01:35:53.219Z,22.26
2022-08-09T01:37:01.708Z,22.42
2022-08-09T01:38:15.433Z,22.39
2022-08-09T01:39:23.572Z,22.46
2022-08-09T01:40:30.766Z,22.37
2022-08-09T01:41:38.879Z,22.23
2022-08-09T01:43:03.080Z,22.11
2022-08-09T01:44:11.360Z,21.91
2022-08-09T01:45:22.053Z,21.87
2022-08-09T01:46:31.746Z,21.70
2022-08-09T01:47:44.491Z,21.47
2022-08-09T01:48:52.471Z,21.41
2022-08-09T01:50:00.068Z,21.42
2022-08-09T01:51:10.071Z,21.70
2022-08-09T01:52:18.040Z,21.98
2022-08-09T01:53:28.888Z,21.88
2022-08-09T01:54:52.606Z,21.83
2022-08-09T01:56:00.454Z,22.15
2022-08-09T01:57:15.990Z,22.12
2022-08-09T01:58:24.308Z,22.21
2022-08-09T01:59:32.465Z,22.19
2022-08-09T02:00:40.580Z,22.44
2022-08-09T02:01:59.064Z,22.75
2022-08-09T02:03:11.328Z,22.64
2022-08-09T02:04:22.009Z,22.79
2022-08-09T02:05:38.246Z,22.59
2022-08-09T02:07:17.884Z,22.37
2022-08-09T02:08:40.229Z,22.21
2022-08-09T02:10:03.778Z,22.29
2022-08-09T02:11:16.630Z,22.50
2022-08-09T02:12:25.389Z,22.43
2022-08-09T02:13:40.266Z,22.47
2022-08-09T02:14:51.775Z,22.40
2022-08-09T02:15:58.850Z,22.11
2022-08-09T02:17:29.366Z,22.00
2022-08-09T02:18:37.767Z,21.98
2022-08-09T02:19:50.631Z,21.67
2022-08-09T02:21:04.719Z,21.67
2022-08-09T02:22:35.045Z,21.83
2022-08-09T02:23:52.313Z,22.02
2022-08-09T02:25:04.173Z,22.17
2022-08-09T02:26:26.826Z,22.17
2022-08-09T02:27:57.911Z,22.14
2022-08-09T02:29:19.514Z,22.00
2022-08-09T02:30:30.366Z,22.36
2022-08-09T02:31:40.877Z,22.52
2022-08-09T02:32:49.434Z,22.57
2022-08-09T02:34:12.932Z,22.55
2022-08-09T02:36:02.615Z,22.27
2022-08-09T02:36:59.006Z,21.65
2022-08-09T02:38:07.337Z,21.31
2022-08-09T02:39:19.874Z,21.24
2022-08-09T02:40:41.612Z,21.31
2022-08-09T02:41:55.429Z,21.07
2022-08-09T02:43:05.775Z,20.87
2022-08-09T02:44:29.532Z,21.04
2022-08-09T02:45:39.456Z,21.37
2022-08-09T02:46:52.159Z,21.75
2022-08-09T02:48:05.155Z,21.90
2022-08-09T02:49:38.160Z,22.23
2022-08-09T02:50:54.277Z,22.24
2022-08-09T02:52:05.507Z,21.99
2022-08-09T02:53:29.634Z,21.48
2022-08-09T02:54:37.045Z,21.35
2022-08-09T02:56:02.104Z,21.15
2022-08-09T02:57:14.103Z,20.92
2022-08-09T02:58:37.255Z,20.78
2022-08-09T03:00:11.452Z,20.81
2022-08-09T03:01:15.045Z,20.69
2022-08-09T03:02:30.975Z,20.66
2022-08-09T03:04:12.592Z,20.56
2022-08-09T03:05:10.865Z,20.70
2022-08-09T03:06:27.857Z,20.86
2022-08-09T03:07:37.783Z,21.09
2022-08-09T03:08:49.231Z,21.03
2022-08-09T03:10:00.463Z,21.39
2022-08-09T03:11:10.361Z,21.31
2022-08-09T03:12:19.017Z,21.47
2022-08-09T03:13:27.526Z,21.48
2022-08-09T03:14:52.926Z,21.37
2022-08-09T03:16:05.978Z,21.87
2022-08-09T03:17:16.565Z,21.74
2022-08-09T03:18:32.613Z,21.97
2022-08-09T03:19:57.887Z,21.96
2022-08-09T03:21:08.190Z,22.12
2022-08-09T03:22:24.994Z,22.19
2022-08-09T03:23:39.340Z,22.37
2022-08-09T03:24:52.659Z,22.36
2022-08-09T03:26:21.518Z,22.31
2022-08-09T03:27:45.080Z,22.36
2022-08-09T03:28:57.104Z,22.64
2022-08-09T03:30:04.777Z,22.49
2022-08-09T03:31:21.379Z,22.71
2022-08-09T03:32:32.404Z,22.81
2022-08-09T03:33:53.260Z,22.92
2022-08-09T03:35:03.180Z,22.84
2022-08-09T03:36:27.599Z,22.93
2022-08-09T03:37:55.289Z,22.78
2022-08-09T03:39:05.283Z,22.89
2022-08-09T03:40:14.858Z,23.06
2022-08-09T03:41:30.226Z,23.09
2022-08-09T03:42:54.879Z,23.12
2022-08-09T03:44:08.911Z,23.21
2022-08-09T03:45:17.117Z,23.25
2022-08-09T03:46:46.484Z,23.07
2022-08-09T03:47:54.320Z,23.08
2022-08-09T03:49:03.958Z,23.05
2022-08-09T03:50:18.949Z,23.37
2022-08-09T03:51:55.980Z,23.35
2022-08-09T03:53:05.432Z,23.56
2022-08-09T03:54:13.878Z,23.89
2022-08-09T03:55:22.387Z,24.02
2022-08-09T03:56:31.158Z,24.34
2022-08-09T03:57:44.503Z,24.71
2022-08-09T03:59:02.216Z,25.28
2022-08-09T04:00:17.025Z,25.66
2022-08-09T04:01:25.229Z,26.21
2022-08-09T04:02:44.995Z,26.78
2022-08-09T04:04:01.251Z,26.90
2022-08-09T04:05:26.787Z,27.25
2022-08-09T04:06:38.449Z,27.46
2022-08-09T04:07:56.871Z,27.58
2022-08-09T04:09:41.465Z,27.74
2022-08-09T04:10:40.529Z,27.85
2022-08-09T04:12:02.627Z,27.92
2022-08-09T04:13:12.625Z,28.37
2022-08-09T04:14:53.157Z,28.36
2022-08-09T04:16:19.843Z,28.77
2022-08-09T04:17:21.393Z,29.04
2022-08-09T04:18:28.549Z,29.30
2022-08-09T04:19:50.774Z,29.56
2022-08-09T04:20:59.437Z,29.85
2022-08-09T04:22:07.602Z,30.14
2022-08-09T04:23:24.760Z,30.26
2022-08-09T04:24:33.377Z,30.45
2022-08-09T04:25:40.793Z,30.56
2022-08-09T04:26:50.057Z,30.93
2022-08-09T04:28:02.421Z,31.15
2022-08-09T04:29:15.723Z,31.00
2022-08-09T04:30:28.874Z,31.19
2022-08-09T04:31:37.685Z,31.42
2022-08-09T04:32:56.537Z,31.55
2022-08-09T04:34:04.520Z,31.82
2022-08-09T04:35:15.358Z,32.03
2022-08-09T04:36:25.646Z,32.55
2022-08-09T04:37:42.152Z,32.29
2022-08-09T04:38:53.536Z,32.43
2022-08-09T04:40:00.736Z,32.46
2022-08-09T04:41:11.949Z,32.74
2022-08-09T04:42:20.075Z,32.91
2022-08-09T04:43:30.497Z,33.00
2022-08-09T04:44:49.404Z,33.24
2022-08-09T04:45:57.206Z,33.07
2022-08-09T04:47:09.155Z,33.07
2022-08-09T04:48:16.349Z,33.45
2022-08-09T04:49:40.103Z,33.45
2022-08-09T04:50:51.090Z,33.58
2022-08-09T04:51:58.122Z,33.64
2022-08-09T04:53:13.593Z,33.93
2022-08-09T04:54:21.868Z,33.86
2022-08-09T04:55:37.880Z,34.01
2022-08-09T04:56:57.586Z,33.82
2022-08-09T04:58:09.115Z,33.88
2022-08-09T04:59:17.308Z,33.84
2022-08-09T05:00:31.812Z,33.84
2022-08-09T05:01:43.760Z,33.96
2022-08-09T05:02:52.736Z,33.70
2022-08-09T05:04:00.462Z,33.80
2022-08-09T05:05:10.793Z,34.16
2022-08-09T05:06:25.803Z,34.26
2022-08-09T05:07:36.872Z,34.19
2022-08-09T05:08:47.827Z,34.21
2022-08-09T05:09:56.195Z,34.23
2022-08-09T05:11:06.846Z,34.16
2022-08-09T05:12:16.870Z,34.13
2022-08-09T05:13:25.991Z,34.38
2022-08-09T05:14:35.445Z,34.41
2022-08-09T05:15:47.953Z,34.35
2022-08-09T05:17:01.017Z,34.37
2022-08-09T05:18:42.520Z,34.43
2022-08-09T05:19:44.894Z,34.45
2022-08-09T05:20:54.916Z,34.47
2022-08-09T05:22:02.673Z,34.51
2022-08-09T05:23:53.573Z,34.53
2022-08-09T05:24:39.562Z,34.92
2022-08-09T05:25:50.755Z,35.05
2022-08-09T05:26:59.425Z,34.83
2022-08-09T05:28:07.736Z,34.64
2022-08-09T05:29:24.115Z,34.70
2022-08-09T05:30:32.943Z,34.69
2022-08-09T05:31:47.452Z,34.74
2022-08-09T05:33:01.955Z,34.91
2022-08-09T05:34:16.626Z,34.86
2022-08-09T05:35:25.940Z,34.77
2022-08-09T05:36:37.291Z,34.72
2022-08-09T05:37:51.172Z,34.75
2022-08-09T05:38:59.070Z,34.85
2022-08-09T05:40:09.183Z,34.91
2022-08-09T05:41:18.953Z,35.01
2022-08-09T05:42:27.965Z,35.02
2022-08-09T05:43:37.585Z,35.16
2022-08-09T05:44:50.456Z,35.11
2022-08-09T05:46:02.394Z,35.25
2022-08-09T05:47:14.409Z,35.18
2022-08-09T05:48:27.692Z,35.16
2022-08-09T05:50:25.887Z,35.22
2022-08-09T05:51:30.260Z,35.08
2022-08-09T05:52:36.484Z,35.14
2022-08-09T05:53:56.560Z,35.00
2022-08-09T05:55:07.273Z,34.92
2022-08-09T05:56:16.364Z,35.03
2022-08-09T05:57:25.167Z,35.06
2022-08-09T05:58:56.172Z,35.21
2022-08-09T06:00:08.953Z,35.41
2022-08-09T06:01:19.287Z,35.63
2022-08-09T06:02:26.758Z,35.58
2022-08-09T06:03:43.914Z,35.58
2022-08-09T06:04:52.032Z,35.69
2022-08-09T06:06:05.945Z,35.66
2022-08-09T06:07:21.368Z,35.63
2022-08-09T06:08:29.393Z,35.64
2022-08-09T06:09:54.521Z,35.75
2022-08-09T06:11:17.307Z,35.96
2022-08-09T06:12:26.405Z,36.07
2022-08-09T06:13:34.290Z,36.18
2022-08-09T06:14:41.606Z,36.08
2022-08-09T06:15:51.321Z,36.09
2022-08-09T06:16:59.680Z,36.03
2022-08-09T06:18:16.776Z,35.87
2022-08-09T06:19:24.409Z,35.78
2022-08-09T06:20:36.423Z,35.57
2022-08-09T06:21:51.394Z,35.55
2022-08-09T06:23:07.446Z,35.56
2022-08-09T06:24:21.353Z,35.61
2022-08-09T06:25:30.465Z,35.51
2022-08-09T06:26:45.292Z,35.34
2022-08-09T06:27:53.708Z,35.33
2022-08-09T06:29:04.742Z,35.15
2022-08-09T06:30:14.137Z,35.22
2022-08-09T06:31:31.566Z,34.99
2022-08-09T06:32:59.897Z,34.78
2022-08-09T06:34:18.513Z,34.81
2022-08-09T06:35:55.732Z,34.95
2022-08-09T06:36:59.456Z,35.12
2022-08-09T06:38:08.753Z,35.05
2022-08-09T06:39:16.496Z,35.21
2022-08-09T06:40:25.494Z,35.17
2022-08-09T06:41:57.493Z,35.38
2022-08-09T06:43:03.773Z,35.47
2022-08-09T06:44:18.229Z,35.63
2022-08-09T06:46:06.168Z,35.63
2022-08-09T06:46:57.227Z,35.73
2022-08-09T06:48:05.215Z,35.97
2022-08-09T06:49:16.122Z,36.13
2022-08-09T06:50:31.875Z,36.23
2022-08-09T06:51:40.394Z,36.40
2022-08-09T06:52:49.526Z,36.42
2022-08-09T06:54:00.965Z,36.64
2022-08-09T06:55:12.730Z,36.70
2022-08-09T06:56:21.044Z,36.71
2022-08-09T06:58:01.818Z,36.83
2022-08-09T07:00:50.384Z,37.01
2022-08-09T07:00:54.407Z,37.11
2022-08-09T07:02:05.808Z,37.22
2022-08-09T07:03:14.090Z,37.31
2022-08-09T07:04:21.981Z,37.47
2022-08-09T07:05:58.256Z,37.81
2022-08-09T07:07:04.728Z,38.01
2022-08-09T07:08:12.999Z,37.90
2022-08-09T07:09:57.141Z,38.30
2022-08-09T07:10:50.157Z,38.73
2022-08-09T07:11:58.652Z,38.94
2022-08-09T07:13:27.247Z,38.90
2022-08-09T07:14:38.895Z,39.14
2022-08-09T07:16:36.054Z,39.08
2022-08-09T07:17:18.019Z,39.32
2022-08-09T07:18:26.101Z,39.20
2022-08-09T07:19:33.880Z,39.35
2022-08-09T07:20:43.516Z,39.27
2022-08-09T07:21:57.819Z,39.44
2022-08-09T07:23:18.170Z,39.53
2022-08-09T07:24:40.193Z,39.61
2022-08-09T07:26:02.557Z,39.61
2022-08-09T07:27:26.383Z,39.79
2022-08-09T07:29:09.047Z,39.93
2022-08-09T07:30:09.983Z,39.96
2022-08-09T07:31:18.002Z,40.04
2022-08-09T07:32:33.375Z,40.07
2022-08-09T07:33:52.821Z,40.27
2022-08-09T07:35:10.613Z,40.31
2022-08-09T07:36:22.121Z,40.49
2022-08-09T07:37:30.480Z,40.68
2022-08-09T07:38:58.380Z,40.72
2022-08-09T07:40:09.508Z,40.90
2022-08-09T07:41:21.593Z,40.80
2022-08-09T07:42:32.939Z,41.18
2022-08-09T07:43:41.421Z,40.96
2022-08-09T07:45:02.568Z,41.34
2022-08-09T07:46:27.739Z,41.12
2022-08-09T07:47:49.309Z,41.38
2022-08-09T07:49:03.893Z,41.42
2022-08-09T07:50:13.317Z,41.34
2022-08-09T07:52:06.169Z,41.26
2022-08-09T07:52:57.513Z,41.39
2022-08-09T07:54:09.052Z,41.68
2022-08-09T07:55:17.331Z,41.75
2022-08-09T07:56:30.977Z,41.58
2022-08-09T07:57:46.957Z,41.55
2022-08-09T07:58:57.202Z,41.75
2022-08-09T08:00:11.045Z,42.13
2022-08-09T08:01:33.980Z,42.26
2022-08-09T08:02:43.474Z,42.34
2022-08-09T08:03:56.613Z,42.44
2022-08-09T08:05:17.675Z,42.28
2022-08-09T08:06:32.180Z,42.31
2022-08-09T08:08:44.047Z,42.25
2022-08-09T08:09:18.821Z,42.64
2022-08-09T08:10:37.695Z,42.62
2022-08-09T08:12:09.953Z,42.53
2022-08-09T08:13:12.881Z,42.63
2022-08-09T08:14:24.019Z,42.60
2022-08-09T08:15:35.506Z,42.67
2022-08-09T08:17:00.418Z,42.72
2022-08-09T08:18:16.258Z,42.57
2022-08-09T08:19:30.659Z,42.46
2022-08-09T08:20:38.795Z,42.53
2022-08-09T08:21:52.704Z,42.69
2022-08-09T08:23:01.483Z,42.94
2022-08-09T08:24:11.979Z,43.00
2022-08-09T08:25:23.782Z,43.02
2022-08-09T08:26:55.550Z,42.99
2022-08-09T08:28:04.058Z,43.09
2022-08-09T08:29:15.585Z,42.87
2022-08-09T08:30:28.083Z,42.74
2022-08-09T08:31:56.529Z,42.49
2022-08-09T08:33:04.473Z,42.34
2022-08-09T08:34:12.336Z,42.30
2022-08-09T08:35:22.520Z,42.31
2022-08-09T08:36:30.700Z,42.10
2022-08-09T08:37:42.008Z,42.14
2022-08-09T08:39:06.157Z,42.19
2022-08-09T08:40:19.075Z,42.24
2022-08-09T08:41:41.738Z,42.22
2022-08-09T08:42:54.556Z,42.28
2022-08-09T08:44:06.705Z,42.34
2022-08-09T08:45:15.517Z,42.37
2022-08-09T08:46:33.355Z,42.32
2022-08-09T08:47:44.745Z,42.41
2022-08-09T08:48:53.588Z,42.54
2022-08-09T08:50:02.650Z,42.62
2022-08-09T08:51:10.156Z,42.51
2022-08-09T08:54:03.665Z,42.80
2022-08-09T08:55:13.597Z,42.80
2022-08-09T08:56:28.417Z,42.89
2022-08-09T08:57:39.407Z,42.91
2022-08-09T08:58:48.726Z,42.79
2022-08-09T08:59:58.006Z,43.02
2022-08-09T09:01:09.101Z,43.11
2022-08-09T09:02:31.274Z,43.23
2022-08-09T09:03:39.146Z,43.14
2022-08-09T09:04:52.676Z,43.30
2022-08-09T09:06:04.850Z,43.44
2022-08-09T09:07:13.435Z,43.36
2022-08-09T09:08:30.065Z,43.40
2022-08-09T09:09:58.745Z,43.51
2022-08-09T09:11:06.982Z,43.52
2022-08-09T09:12:16.639Z,43.41
2022-08-09T09:13:25.232Z,43.39
2022-08-09T09:14:52.175Z,43.53
2022-08-09T09:15:59.266Z,43.66
2022-08-09T09:17:06.405Z,43.74
2022-08-09T09:18:20.530Z,43.92
2022-08-09T09:19:41.093Z,44.21
2022-08-09T09:20:49.355Z,44.35
2022-08-09T09:22:11.315Z,44.40
2022-08-09T09:23:19.459Z,44.78
2022-08-09T09:24:50.033Z,45.33
2022-08-09T09:26:04.631Z,45.58
2022-08-09T09:28:03.126Z,45.84
2022-08-09T09:29:04.598Z,45.96
2022-08-09T09:30:38.222Z,45.92
2022-08-09T09:32:03.523Z,45.93
2022-08-09T09:33:15.423Z,45.86
2022-08-09T09:34:23.133Z,45.74
2022-08-09T09:35:33.240Z,45.83
2022-08-09T09:36:51.179Z,45.99
2022-08-09T09:38:01.581Z,46.09
2022-08-09T09:39:10.298Z,46.10
2022-08-09T09:40:17.987Z,46.34
2022-08-09T09:41:33.043Z,46.28
2022-08-09T09:42:57.686Z,46.37
2022-08-09T09:44:12.221Z,46.58
2022-08-09T09:45:26.444Z,46.79
2022-08-09T09:46:43.310Z,46.87
2022-08-09T09:47:58.465Z,46.84
2022-08-09T09:49:11.595Z,46.74
2022-08-09T09:50:23.625Z,47.14
2022-08-09T09:51:38.593Z,47.32
2022-08-09T09:52:56.727Z,47.12
2022-08-09T09:54:20.412Z,47.01
2022-08-09T09:55:32.819Z,47.03
2022-08-09T09:58:00.086Z,47.12
2022-08-09T09:58:16.878Z,47.44
2022-08-09T09:59:35.998Z,47.76
2022-08-09T10:00:58.772Z,48.00
2022-08-09T10:02:07.942Z,48.14
2022-08-09T10:03:15.045Z,47.91
2022-08-09T10:04:30.895Z,48.00
2022-08-09T10:06:03.522Z,48.12
2022-08-09T10:07:10.066Z,48.44
2022-08-09T10:08:27.211Z,48.42
2022-08-09T10:09:54.833Z,48.33
2022-08-09T10:11:06.956Z,48.39
2022-08-09T10:12:32.186Z,48.52
2022-08-09T10:13:45.180Z,48.64
2022-08-09T10:14:52.674Z,48.92
2022-08-09T10:16:55.767Z,49.19
2022-08-09T10:17:50.895Z,49.40
2022-08-09T10:18:56.337Z,49.63
2022-08-09T10:20:27.068Z,49.61
2022-08-09T10:21:48.748Z,49.47
2022-08-09T10:23:01.835Z,49.24
2022-08-09T10:24:09.135Z,49.43
2022-08-09T10:25:24.645Z,49.49
2022-08-09T10:26:42.664Z,49.41
2022-08-09T10:27:57.975Z,49.55
2022-08-09T10:29:21.325Z,49.28
2022-08-09T10:34:05.236Z,49.61
2022-08-09T10:34:57.477Z,49.60
2022-08-09T10:36:11.571Z,49.91
2022-08-09T10:37:20.724Z,49.81
2022-08-09T10:38:55.523Z,49.69
2022-08-09T10:39:57.520Z,49.79
2022-08-09T10:41:06.011Z,49.94
2022-08-09T10:42:17.348Z,50.19
2022-08-09T10:43:25.834Z,50.38
2022-08-09T10:44:46.765Z,50.54
2022-08-09T10:45:59.889Z,50.79
2022-08-09T10:48:16.571Z,50.79
2022-08-09T10:49:12.396Z,50.94
2022-08-09T10:50:30.854Z,51.03
2022-08-09T10:52:07.276Z,51.18
2022-08-09T10:53:32.024Z,51.66
2022-08-09T10:54:45.374Z,51.82
2022-08-09T10:55:58.340Z,51.97
2022-08-09T10:57:09.344Z,51.79
2022-08-09T10:58:37.035Z,51.77
2022-08-09T10:59:57.928Z,51.63
2022-08-09T11:03:06.439Z,51.53
2022-08-09T11:03:13.388Z,51.60
2022-08-09T11:04:31.712Z,51.71
2022-08-09T11:05:40.529Z,51.78
2022-08-09T11:07:08.179Z,51.83
2022-08-09T11:08:47.954Z,51.94
2022-08-09T11:09:59.672Z,52.24
2022-08-09T11:11:08.714Z,52.28
2022-08-09T11:12:17.833Z,52.31
2022-08-09T11:13:51.380Z,52.15
2022-08-09T11:14:58.649Z,52.45
2022-08-09T11:16:35.610Z,52.74
2022-08-09T11:17:46.940Z,53.19
2022-08-09T11:19:02.143Z,53.69
2022-08-09T11:20:22.175Z,53.94
2022-08-09T11:21:54.986Z,53.74
2022-08-09T11:23:12.364Z,53.68
2022-08-09T11:24:21.236Z,53.47
2022-08-09T11:25:45.312Z,53.45
2022-08-09T11:26:55.176Z,53.33
2022-08-09T11:28:05.122Z,53.03
2022-08-09T11:30:05.942Z,53.07
2022-08-09T11:31:48.789Z,53.14
2022-08-09T11:33:04.804Z,53.17
2022-08-09T11:34:29.786Z,53.25
2022-08-09T11:35:57.656Z,53.15
2022-08-09T11:37:07.180Z,53.10
2022-08-09T11:38:21.958Z,53.09
2022-08-09T11:39:38.111Z,53.31
2022-08-09T11:40:46.425Z,53.22
2022-08-09T11:41:58.570Z,53.33
2022-08-09T11:43:06.706Z,53.28
2022-08-09T11:44:13.823Z,53.27
2022-08-09T11:45:37.895Z,53.46
2022-08-09T11:46:56.433Z,53.74
2022-08-09T11:48:31.828Z,53.52
2022-08-09T11:50:53.815Z,53.94
2022-08-09T11:53:03.729Z,53.79
2022-08-09T11:53:21.170Z,53.98
2022-08-09T11:54:34.878Z,54.35
2022-08-09T11:55:53.526Z,54.70
2022-08-09T11:57:47.802Z,54.78
2022-08-09T11:59:10.506Z,54.46
2022-08-09T12:00:22.804Z,54.44
2022-08-09T12:02:17.753Z,54.54
2022-08-09T12:03:31.827Z,54.86
2022-08-09T12:04:37.840Z,54.65
2022-08-09T12:05:47.167Z,54.82
2022-08-09T12:06:57.846Z,54.53
2022-08-09T12:08:12.520Z,54.32
2022-08-09T12:09:34.007Z,54.34
2022-08-09T12:10:53.773Z,54.53
2022-08-09T12:12:12.048Z,54.78
2022-08-09T12:14:07.308Z,55.04
2022-08-09T12:15:49.695Z,54.99
2022-08-09T12:16:56.363Z,54.85
2022-08-09T12:18:07.044Z,54.61
2022-08-09T12:19:18.919Z,54.43
2022-08-09T12:20:29.035Z,54.46
2022-08-09T12:21:50.611Z,54.52
2022-08-09T12:23:01.348Z,54.67
2022-08-09T12:24:10.375Z,54.42
2022-08-09T12:25:34.732Z,54.45
2022-08-09T12:28:59.288Z,54.51
2022-08-09T12:29:11.738Z,54.44
2022-08-09T12:30:01.885Z,54.28
2022-08-09T12:31:58.805Z,54.11
2022-08-09T12:33:04.305Z,54.11
2022-08-09T12:34:11.913Z,54.36
2022-08-09T12:35:21.889Z,54.48
2022-08-09T12:36:34.057Z,54.97
2022-08-09T12:37:51.625Z,55.27
2022-08-09T12:39:02.269Z,55.33
2022-08-09T12:40:11.873Z,55.33
2022-08-09T12:41:26.424Z,55.17
2022-08-09T12:42:35.114Z,55.00
2022-08-09T12:44:06.555Z,54.97
2022-08-09T12:45:32.271Z,55.03
2022-08-09T12:46:48.810Z,54.95
2022-08-09T12:47:58.404Z,55.05
2022-08-09T12:49:06.400Z,55.00
2022-08-09T12:50:23.433Z,54.88
2022-08-09T12:52:00.345Z,54.74
2022-08-09T12:53:17.646Z,54.57
2022-08-09T12:54:27.549Z,54.43
2022-08-09T12:56:16.042Z,54.33
2022-08-09T12:57:02.660Z,54.08
2022-08-09T12:58:27.511Z,53.91
2022-08-09T12:59:39.976Z,53.98
2022-08-09T13:01:05.492Z,53.90
2022-08-09T13:02:15.160Z,53.74
2022-08-09T13:03:53.221Z,53.75
2022-08-09T13:05:04.045Z,53.79
2022-08-09T13:06:16.056Z,54.12
2022-08-09T13:07:50.221Z,54.18
2022-08-09T13:09:06.033Z,54.31
2022-08-09T13:10:14.538Z,54.64
2022-08-09T13:11:34.757Z,54.58
2022-08-09T13:13:09.455Z,54.73
2022-08-09T13:14:42.957Z,54.63
2022-08-09T13:15:59.665Z,54.84
2022-08-09T13:17:25.753Z,55.09
2022-08-09T13:18:47.091Z,54.90
2022-08-09T13:20:09.095Z,54.73
2022-08-09T13:22:35.952Z,54.69
2022-08-09T13:23:05.265Z,54.72
2022-08-09T13:24:53.792Z,54.76
2022-08-09T13:25:56.077Z,54.77
2022-08-09T13:27:04.683Z,54.92
2022-08-09T13:28:24.810Z,54.87
2022-08-09T13:30:04.092Z,54.83
2022-08-09T13:32:16.646Z,55.03
2022-08-09T13:32:48.560Z,55.32
2022-08-09T13:33:56.930Z,55.35
2022-08-09T13:35:04.027Z,55.39
2022-08-09T13:36:24.826Z,55.33
2022-08-09T13:37:52.392Z,55.28
2022-08-09T13:39:08.153Z,55.16
2022-08-09T13:41:50.974Z,54.99
2022-08-09T13:42:01.470Z,55.04
2022-08-09T13:43:09.884Z,55.06
2022-08-09T13:44:23.638Z,55.12
2022-08-09T13:45:32.159Z,55.13
2022-08-09T13:47:19.327Z,55.10
2022-08-09T13:48:25.653Z,55.09
2022-08-09T13:49:55.829Z,55.16
2022-08-09T13:51:04.742Z,55.21
2022-08-09T13:52:18.222Z,55.57
2022-08-09T13:53:38.805Z,55.66
2022-08-09T13:55:00.249Z,55.51
2022-08-09T13:56:12.842Z,55.29
2022-08-09T13:57:37.154Z,55.18
2022-08-09T13:58:48.721Z,55.09
2022-08-09T13:59:58.262Z,55.10
2022-08-09T14:01:06.755Z,55.05
2022-08-09T14:02:25.543Z,55.14
2022-08-09T14:04:03.810Z,55.16
2022-08-09T14:05:02.534Z,55.09
2022-08-09T14:06:25.705Z,54.88
2022-08-09T14:07:42.083Z,54.61
2022-08-09T14:08:51.192Z,54.63
2022-08-09T14:09:59.512Z,54.53
2022-08-09T14:11:16.367Z,54.28
2022-08-09T14:12:24.721Z,53.80
2022-08-09T14:14:22.003Z,52.97
2022-08-09T14:15:03.432Z,52.19
2022-08-09T14:16:29.201Z,51.86
2022-08-09T14:18:06.815Z,51.34
2022-08-09T14:19:06.016Z,50.97
2022-08-09T14:20:14.446Z,51.07
2022-08-09T14:21:25.742Z,51.09
2022-08-09T14:22:38.314Z,51.03
2022-08-09T14:23:54.477Z,50.74
2022-08-09T14:25:05.312Z,50.47
2022-08-09T14:26:18.261Z,50.42
2022-08-09T14:27:27.477Z,50.26
2022-08-09T14:28:42.964Z,50.24
2022-08-09T14:30:35.790Z,50.23
2022-08-09T14:31:23.670Z,50.13
2022-08-09T14:32:45.153Z,50.20
2022-08-09T14:33:54.756Z,50.14
2022-08-09T14:35:03.673Z,50.10
2022-08-09T14:36:20.543Z,49.99
2022-08-09T14:37:41.184Z,49.93
2022-08-09T14:38:59.282Z,49.86
2022-08-09T14:40:07.777Z,49.94
2022-08-09T14:41:34.873Z,49.80
2022-08-09T14:42:48.082Z,49.66
2022-08-09T14:43:56.242Z,49.68
2022-08-09T14:46:40.562Z,49.73
2022-08-09T14:46:58.660Z,49.95
2022-08-09T14:48:03.667Z,49.92
2022-08-09T14:49:12.642Z,49.75
2022-08-09T14:50:24.723Z,49.70
2022-08-09T14:51:42.503Z,49.47
2022-08-09T14:52:51.625Z,49.33
2022-08-09T14:54:00.856Z,49.24
2022-08-09T14:55:10.924Z,48.87
2022-08-09T14:56:17.770Z,48.69
2022-08-09T14:57:32.105Z,48.33
2022-08-09T14:58:56.312Z,48.08
2022-08-09T15:00:06.605Z,47.88
2022-08-09T15:01:15.354Z,47.42
2022-08-09T15:02:22.611Z,47.05
2022-08-09T15:03:30.713Z,46.78
2022-08-09T15:04:39.216Z,46.39
2022-08-09T15:05:52.446Z,46.07
2022-08-09T15:07:05.562Z,45.85
2022-08-09T15:08:19.005Z,45.84
2022-08-09T15:09:52.046Z,45.86
2022-08-09T15:11:00.979Z,45.51
2022-08-09T15:12:13.239Z,45.16
2022-08-09T15:13:20.354Z,44.85
2022-08-09T15:14:33.756Z,44.58
2022-08-09T15:15:43.819Z,44.36
2022-08-09T15:16:51.193Z,43.96
2022-08-09T15:17:58.833Z,43.53
2022-08-09T15:19:15.916Z,43.02
2022-08-09T15:21:55.043Z,42.68
2022-08-09T15:21:56.461Z,42.19
2022-08-09T15:24:01.797Z,41.94
2022-08-09T15:24:37.540Z,41.34
2022-08-09T15:25:45.627Z,40.96
2022-08-09T15:26:54.581Z,40.33
2022-08-09T15:28:26.140Z,39.90
2022-08-09T15:30:59.836Z,39.24
2022-08-09T15:31:09.959Z,39.62
2022-08-09T15:32:28.777Z,39.77
2022-08-09T15:34:32.768Z,39.45
2022-08-09T15:35:18.334Z,39.32
2022-08-09T15:36:34.034Z,38.87
2022-08-09T15:37:56.581Z,38.63
2022-08-09T15:39:09.717Z,38.09
2022-08-09T15:40:20.053Z,37.94
2022-08-09T15:41:32.062Z,37.66
2022-08-09T15:42:40.408Z,37.47
2022-08-09T15:43:50.945Z,37.31
2022-08-09T15:44:59.840Z,36.98
2022-08-09T15:46:33.227Z,36.67
2022-08-09T15:47:51.507Z,36.69
2022-08-09T15:49:21.767Z,36.51
2022-08-09T15:50:33.149Z,35.99
2022-08-09T15:52:02.320Z,35.87
2022-08-09T15:53:17.782Z,34.69
2022-08-09T15:54:44.651Z,34.10
2022-08-09T15:56:21.480Z,34.07
2022-08-09T15:57:34.103Z,33.76
2022-08-09T15:58:43.726Z,33.18
2022-08-09T15:59:51.680Z,33.13
2022-08-09T16:01:00.110Z,32.54
2022-08-09T16:02:07.554Z,30.68
2022-08-09T16:03:18.853Z,29.76
2022-08-09T16:04:36.738Z,29.59
2022-08-09T16:05:53.412Z,29.72
2022-08-09T16:07:02.166Z,29.87
2022-08-09T16:08:09.940Z,29.66
2022-08-09T16:09:51.350Z,28.89
2022-08-09T16:11:04.934Z,28.19
2022-08-09T16:12:15.749Z,27.98
2022-08-09T16:14:05.353Z,28.02
2022-08-09T16:14:51.307Z,28.22
2022-08-09T16:16:04.454Z,27.43
2022-08-09T16:17:19.641Z,26.37
2022-08-09T16:18:29.587Z,25.48
2022-08-09T16:19:48.866Z,24.40
2022-08-09T16:20:57.618Z,23.86
2022-08-09T16:22:05.714Z,23.46
2022-08-09T16:23:23.066Z,23.48
2022-08-09T16:24:33.387Z,23.40
2022-08-09T16:25:41.930Z,23.49
2022-08-09T16:27:00.502Z,23.37
2022-08-09T16:28:07.835Z,23.57